Time;durP1;ratioP1;P1;durP2;ratioP2;P2;SDS_P1;SDS_P2;PMS_P1;PMS_P2;Temp;Humidity;BMP_temperature;BMP_pressure;BME280_temperature;BME280_humidity;BME280_pressure;Samples;Min_cycle;Max_cycle;Signal;HPM_P1;HPM_P2
2023/04/28 00:01:28;;;;;;;7.00;3.30;;;;;;;6.46;60.19;101008.86;109083;1254;59130;-69
2023/04/28 00:03:56;;;;;;;7.20;3.20;;;;;;;6.47;60.44;101008.25;109265;1254;59676;-70
2023/04/28 00:06:23;;;;;;;6.40;3.40;;;;;;;6.46;60.75;100999.14;109296;1253;59078;-69
2023/04/28 00:08:50;;;;;;;5.60;3.00;;;;;;;6.45;60.69;101002.42;109274;1254;73943;-69
2023/04/28 00:11:17;;;;;;;8.70;4.50;;;;;;;6.44;61.19;100999.73;109288;1254;58994;-69
2023/04/28 00:13:43;;;;;;;9.40;4.60;;;;;;;6.41;61.41;100990.02;109139;1254;71195;-69
2023/04/28 00:16:10;;;;;;;7.20;4.30;;;;;;;6.39;61.71;100988.94;109022;1254;60323;-69
2023/04/28 00:18:37;;;;;;;7.40;3.60;;;;;;;6.38;61.55;100985.70;109164;1253;60328;-69
2023/04/28 00:21:05;;;;;;;5.60;3.10;;;;;;;6.38;61.55;100984.82;109237;1254;74325;-69
2023/04/28 00:23:31;;;;;;;7.10;3.30;;;;;;;6.38;61.76;100982.73;109253;1253;70020;-69
2023/04/28 00:25:58;;;;;;;7.50;3.20;;;;;;;6.39;62.02;100978.36;109173;1254;70906;-69
2023/04/28 00:28:25;;;;;;;6.10;3.20;;;;;;;6.40;62.00;100976.54;109178;1253;59652;-68
2023/04/28 00:31:00;;;;;;;6.60;3.30;;;;;;;6.40;62.11;100976.92;109306;1254;59266;-69
2023/04/28 00:33:27;;;;;;;7.90;3.40;;;;;;;6.41;62.23;100975.88;109297;1254;73996;-68
2023/04/28 00:36:00;;;;;;;6.60;3.30;;;;;;;6.43;62.26;100969.56;109310;1253;71472;-68
2023/04/28 00:38:27;;;;;;;6.70;3.00;;;;;;;6.45;62.36;100968.55;109126;1254;71225;-68
2023/04/28 00:40:54;;;;;;;5.70;3.10;;;;;;;6.45;62.46;100964.13;109305;1253;59928;-68
2023/04/28 00:43:21;;;;;;;6.10;3.30;;;;;;;6.45;62.80;100962.15;109314;1252;60201;-69
2023/04/28 00:45:51;;;;;;;6.30;3.40;;;;;;;6.46;62.84;100961.06;109181;1253;74937;-68
2023/04/28 00:48:18;;;;;;;7.10;3.50;;;;;;;6.46;62.89;100964.69;109052;1252;71432;-68
2023/04/28 00:50:47;;;;;;;5.40;3.00;;;;;;;6.47;63.12;100962.15;109174;1254;72849;-69
2023/04/28 00:53:13;;;;;;;7.10;3.20;;;;;;;6.47;63.21;100956.41;109043;1253;58991;-69
2023/04/28 00:55:40;;;;;;;6.50;3.20;;;;;;;6.46;63.36;100954.83;109048;1252;60429;-69
2023/04/28 00:58:08;;;;;;;7.50;3.30;;;;;;;6.48;63.30;100949.23;109172;1254;74661;-69
2023/04/28 01:00:34;;;;;;;5.90;3.10;;;;;;;6.49;63.42;100943.21;109063;1253;69104;-69
2023/04/28 01:03:02;;;;;;;5.10;3.10;;;;;;;6.50;63.33;100946.64;109336;1253;71650;-69
2023/04/28 01:05:30;;;;;;;6.80;3.40;;;;;;;6.50;63.47;100946.28;109059;1253;59955;-69
2023/04/28 01:07:57;;;;;;;4.70;3.00;;;;;;;6.52;63.67;100948.02;109215;1253;60117;-69
2023/04/28 01:10:24;;;;;;;5.70;3.20;;;;;;;6.55;63.45;100942.66;109387;1253;72767;-69
2023/04/28 01:12:51;;;;;;;6.00;3.50;;;;;;;6.58;63.25;100934.86;109336;1252;71034;-69
2023/04/28 01:15:19;;;;;;;6.80;3.30;;;;;;;6.59;63.53;100932.64;109145;1254;71740;-69
2023/04/28 01:17:46;;;;;;;5.70;3.30;;;;;;;6.58;64.05;100926.79;109315;1253;60046;-69
2023/04/28 01:20:14;;;;;;;6.20;3.50;;;;;;;6.57;63.90;100926.09;109214;1253;60321;-69
2023/04/28 01:22:40;;;;;;;6.40;3.60;;;;;;;6.57;64.00;100923.27;109296;1253;73787;-69
2023/04/28 01:25:07;;;;;;;5.50;3.10;;;;;;;6.58;64.08;100919.85;109221;1253;59078;-69
2023/04/28 01:27:34;;;;;;;9.00;3.50;;;;;;;6.59;63.92;100919.07;109183;1255;71147;-69
2023/04/28 01:30:01;;;;;;;6.40;3.20;;;;;;;6.61;63.70;100915.92;109179;1254;59199;-69
2023/04/28 01:32:28;;;;;;;6.40;3.40;;;;;;;6.62;63.72;100921.09;109277;1253;59487;-69
2023/04/28 01:34:55;;;;;;;6.70;3.10;;;;;;;6.64;63.38;100923.71;109318;1253;74720;-69
2023/04/28 01:37:22;;;;;;;6.10;3.70;;;;;;;6.65;63.39;100919.95;109025;1254;70005;-69
2023/04/28 01:39:49;;;;;;;7.60;3.60;;;;;;;6.66;63.34;100917.76;109139;1254;70276;-69
2023/04/28 01:42:16;;;;;;;7.00;3.60;;;;;;;6.66;63.64;100916.11;109065;1253;61253;-69
2023/04/28 01:44:42;;;;;;;6.40;3.70;;;;;;;6.66;63.67;100913.89;109157;1253;59142;-69
2023/04/28 01:47:09;;;;;;;8.20;3.70;;;;;;;6.65;63.52;100906.38;109168;1254;74075;-69
2023/04/28 01:49:36;;;;;;;6.80;3.80;;;;;;;6.65;63.78;100902.91;109159;1253;70912;-69
2023/04/28 01:52:02;;;;;;;6.70;3.90;;;;;;;6.64;63.88;100900.05;109317;1253;71502;-69
2023/04/28 01:54:29;;;;;;;6.90;3.30;;;;;;;6.62;64.05;100898.11;109298;1253;59642;-68
2023/04/28 01:56:56;;;;;;;8.10;3.50;;;;;;;6.60;63.99;100894.77;109135;1253;59092;-69
2023/04/28 01:59:23;;;;;;;6.60;3.40;;;;;;;6.61;64.36;100889.59;109295;1253;75902;-68
2023/04/28 02:01:49;;;;;;;5.80;3.50;;;;;;;6.62;63.89;100887.73;109165;1254;59189;-69
2023/04/28 02:04:16;;;;;;;5.80;3.50;;;;;;;6.62;63.95;100891.03;109314;1252;71449;-68
2023/04/28 02:06:44;;;;;;;6.20;3.30;;;;;;;6.62;64.02;100887.88;109263;1253;61982;-68
2023/04/28 02:09:10;;;;;;;6.10;3.30;;;;;;;6.61;64.09;100884.27;109317;1253;58483;-68
2023/04/28 02:11:37;;;;;;;5.90;3.40;;;;;;;6.60;64.48;100878.72;109261;1253;74753;-68
2023/04/28 02:14:03;;;;;;;5.70;3.20;;;;;;;6.60;64.08;100875.61;109336;1252;69910;-68
2023/04/28 02:16:30;;;;;;;6.40;3.30;;;;;;;6.58;64.04;100874.20;109281;1252;71429;-68
2023/04/28 02:18:57;;;;;;;6.40;3.40;;;;;;;6.57;64.40;100871.85;109307;1253;60468;-68
2023/04/28 02:21:25;;;;;;;7.80;3.80;;;;;;;6.56;64.27;100869.27;109300;1253;59019;-68
2023/04/28 02:23:51;;;;;;;6.70;3.60;;;;;;;6.54;64.57;100869.84;109325;1253;73123;-68
2023/04/28 02:26:18;;;;;;;7.30;3.80;;;;;;;6.54;64.50;100869.82;109181;1252;69711;-68
2023/04/28 02:28:45;;;;;;;6.70;3.60;;;;;;;6.56;64.58;100871.41;109160;1252;72374;-68
2023/04/28 02:31:12;;;;;;;6.80;3.40;;;;;;;6.57;64.44;100869.91;109171;1253;61328;-69
2023/04/28 02:33:41;;;;;;;6.80;3.70;;;;;;;6.54;64.32;100864.94;109099;1253;313420;-68
2023/04/28 02:36:09;;;;;;;5.40;3.20;;;;;;;6.50;64.20;100862.28;109197;1254;74709;-68
2023/04/28 02:38:35;;;;;;;5.30;3.20;;;;;;;6.47;64.34;100854.44;109050;1254;70243;-69
2023/04/28 02:41:04;;;;;;;6.70;3.50;;;;;;;6.45;64.55;100851.86;109308;1252;72863;-68
2023/04/28 02:43:31;;;;;;;7.30;3.80;;;;;;;6.43;64.58;100850.50;109180;1253;59662;-69
2023/04/28 02:45:59;;;;;;;7.40;3.60;;;;;;;6.41;64.67;100844.50;109273;1253;60085;-68
2023/04/28 02:48:25;;;;;;;6.20;3.60;;;;;;;6.38;64.56;100842.67;109324;1253;73221;-68
2023/04/28 02:50:52;;;;;;;6.90;3.60;;;;;;;6.36;64.55;100836.17;109309;1253;70428;-68
2023/04/28 02:53:19;;;;;;;5.80;3.60;;;;;;;6.36;64.74;100834.29;109275;1253;71813;-68
2023/04/28 02:55:46;;;;;;;7.70;3.40;;;;;;;6.36;64.90;100825.88;109140;1256;59857;-68
2023/04/28 02:58:13;;;;;;;5.90;4.00;;;;;;;6.35;65.08;100823.17;109313;1253;60395;-68
2023/04/28 03:00:40;;;;;;;7.10;3.60;;;;;;;6.33;64.72;100821.52;108960;1253;75164;-68
2023/04/28 03:03:06;;;;;;;8.00;3.70;;;;;;;6.33;64.79;100824.34;109125;1254;59516;-68
2023/04/28 03:05:33;;;;;;;6.80;3.80;;;;;;;6.33;64.75;100822.79;109144;1254;71666;-68
2023/04/28 03:08:00;;;;;;;6.60;3.70;;;;;;;6.33;64.87;100820.63;109133;1254;60173;-68
2023/04/28 03:10:27;;;;;;;5.50;3.40;;;;;;;6.34;64.81;100812.85;109090;1253;60007;-68
2023/04/28 03:12:53;;;;;;;5.70;3.40;;;;;;;6.33;64.68;100808.55;109103;1252;73947;-69
2023/04/28 03:15:20;;;;;;;7.90;3.40;;;;;;;6.32;64.78;100811.10;109279;1253;69910;-69
2023/04/28 03:17:46;;;;;;;5.40;3.40;;;;;;;6.30;64.76;100805.98;109162;1253;71108;-68
2023/04/28 03:20:13;;;;;;;8.10;3.70;;;;;;;6.30;64.80;100804.05;109042;1253;62045;-68
2023/04/28 03:22:40;;;;;;;5.60;3.30;;;;;;;6.30;64.82;100804.11;109154;1252;60060;-69
2023/04/28 03:25:07;;;;;;;6.40;3.10;;;;;;;6.29;64.68;100801.02;109297;1253;74806;-69
2023/04/28 03:27:34;;;;;;;6.20;3.80;;;;;;;6.30;64.66;100798.77;109318;1253;69068;-69
2023/04/28 03:30:01;;;;;;;6.00;3.80;;;;;;;6.32;64.66;100794.95;109315;1253;71732;-69
2023/04/28 03:32:27;;;;;;;5.70;3.60;;;;;;;6.33;64.67;100789.59;109286;1253;59516;-69
2023/04/28 03:34:54;;;;;;;9.80;3.30;;;;;;;6.32;64.66;100783.69;109306;1252;59378;-69
2023/04/28 03:37:21;;;;;;;6.20;3.30;;;;;;;6.32;64.63;100785.08;109168;1252;73703;-69
2023/04/28 03:39:48;;;;;;;5.30;3.40;;;;;;;6.32;64.47;100784.96;109286;1253;71571;-68
2023/04/28 03:42:15;;;;;;;5.60;3.00;;;;;;;6.30;64.74;100784.58;109338;1252;70419;-69
2023/04/28 03:44:41;;;;;;;7.60;3.90;;;;;;;6.29;64.70;100782.03;109189;1252;59659;-69
2023/04/28 03:47:09;;;;;;;7.80;3.50;;;;;;;6.30;64.76;100776.65;109330;1253;59350;-69
2023/04/28 03:49:36;;;;;;;5.30;3.40;;;;;;;6.31;64.61;100767.63;109151;1253;73923;-69
2023/04/28 03:52:03;;;;;;;6.90;3.60;;;;;;;6.31;64.66;100769.92;109311;1253;71399;-69
2023/04/28 03:54:30;;;;;;;8.60;3.40;;;;;;;6.31;64.59;100767.66;109153;1254;72983;-68
2023/04/28 03:56:56;;;;;;;7.40;3.60;;;;;;;6.32;64.21;100764.05;109299;1252;61469;-68
2023/04/28 03:59:23;;;;;;;7.60;3.30;;;;;;;6.33;64.10;100769.21;109317;1252;61526;-68
2023/04/28 04:01:50;;;;;;;8.40;3.30;;;;;;;6.34;64.25;100756.11;109306;1253;74397;-68
2023/04/28 04:04:17;;;;;;;7.40;3.70;;;;;;;6.34;64.04;100755.91;109150;1253;70054;-69
2023/04/28 04:06:44;;;;;;;6.60;3.30;;;;;;;6.34;64.21;100746.43;109125;1253;72548;-69
2023/04/28 04:09:10;;;;;;;5.50;3.40;;;;;;;6.33;64.24;100745.11;109263;1253;61222;-68
2023/04/28 04:11:37;;;;;;;7.30;3.50;;;;;;;6.32;64.44;100746.30;109251;1253;59018;-68
2023/04/28 04:14:05;;;;;;;7.60;3.90;;;;;;;6.32;64.33;100748.95;109185;1253;73162;-68
2023/04/28 04:16:31;;;;;;;5.70;3.60;;;;;;;6.32;64.65;100746.25;109200;1254;70292;-68
2023/04/28 04:18:58;;;;;;;5.20;3.70;;;;;;;6.33;65.09;100744.96;109315;1253;72835;-68
2023/04/28 04:21:24;;;;;;;9.40;4.10;;;;;;;6.34;64.85;100747.35;109282;1252;59396;-69
2023/04/28 04:23:51;;;;;;;7.30;3.70;;;;;;;6.36;65.07;100747.48;109285;1253;60594;-69
2023/04/28 04:26:18;;;;;;;8.70;3.80;;;;;;;6.39;64.74;100744.38;109336;1253;74918;-68
2023/04/28 04:28:44;;;;;;;6.00;3.50;;;;;;;6.42;64.79;100736.38;109050;1254;69217;-68
2023/04/28 04:31:11;;;;;;;6.60;3.70;;;;;;;6.43;64.81;100733.66;109298;1253;71646;-68
2023/04/28 04:33:38;;;;;;;6.20;3.70;;;;;;;6.43;64.99;100732.77;109149;1252;59241;-69
2023/04/28 04:36:05;;;;;;;9.00;4.70;;;;;;;6.44;64.85;100731.08;109192;1253;60390;-68
2023/04/28 04:38:32;;;;;;;9.00;5.50;;;;;;;6.49;64.81;100733.04;109257;1253;74966;-69
2023/04/28 04:40:59;;;;;;;8.70;4.40;;;;;;;6.55;64.95;100734.05;109125;1253;71362;-70
2023/04/28 04:43:25;;;;;;;8.90;4.40;;;;;;;6.61;64.93;100732.94;109072;1254;71645;-71
2023/04/28 04:45:53;;;;;;;8.70;4.20;;;;;;;6.68;64.94;100728.60;109152;1253;61060;-72
2023/04/28 04:48:19;;;;;;;7.90;3.90;;;;;;;6.76;64.90;100727.89;109310;1253;59814;-70
2023/04/28 04:50:46;;;;;;;6.90;3.60;;;;;;;6.84;64.88;100724.58;109273;1252;74664;-70
2023/04/28 04:53:13;;;;;;;9.20;4.20;;;;;;;6.91;64.77;100728.60;109315;1253;58914;-70
2023/04/28 04:55:42;;;;;;;6.20;4.10;;;;;;;7.00;64.61;100727.83;109280;1253;72632;-70
2023/04/28 04:58:08;;;;;;;6.70;3.60;;;;;;;7.07;64.68;100725.89;109285;1253;59743;-69
2023/04/28 05:00:36;;;;;;;6.10;3.70;;;;;;;7.13;64.76;100726.56;109215;1254;59314;-70
2023/04/28 05:03:04;;;;;;;7.10;3.70;;;;;;;7.19;65.00;100729.67;109365;1253;75022;-69
2023/04/28 05:05:31;;;;;;;6.20;3.50;;;;;;;7.23;64.72;100729.19;109220;1253;71155;-69
2023/04/28 05:07:58;;;;;;;7.70;4.20;;;;;;;7.29;64.51;100723.17;109272;1253;71567;-70
2023/04/28 05:10:26;;;;;;;7.20;3.80;;;;;;;7.37;64.69;100722.77;109341;1254;60361;-70
2023/04/28 05:12:53;;;;;;;7.20;3.50;;;;;;;7.43;64.67;100720.76;109329;1253;59948;-70
2023/04/28 05:15:19;;;;;;;6.40;3.60;;;;;;;7.48;64.62;100723.17;109208;1253;74725;-69
2023/04/28 05:17:46;;;;;;;6.70;3.90;;;;;;;7.54;64.35;100722.45;109283;1253;59906;-70
2023/04/28 05:20:13;;;;;;;10.00;4.00;;;;;;;7.58;64.08;100722.88;109352;1253;72268;-70
2023/04/28 05:22:40;;;;;;;7.30;4.10;;;;;;;7.65;63.96;100718.17;109041;1253;60225;-70
2023/04/28 05:25:07;;;;;;;8.10;4.20;;;;;;;7.70;63.90;100715.30;109301;1252;58992;-70
2023/04/28 05:27:36;;;;;;;8.70;3.90;;;;;;;7.75;63.90;100709.75;109240;1254;73241;-71
2023/04/28 05:30:03;;;;;;;7.30;3.70;;;;;;;7.85;64.60;100704.70;109207;1254;71096;-71
2023/04/28 05:32:30;;;;;;;6.50;3.80;;;;;;;7.92;64.16;100702.22;109104;1254;72984;-70
2023/04/28 05:34:57;;;;;;;6.60;3.70;;;;;;;7.99;64.04;100702.33;109270;1253;61266;-71
2023/04/28 05:37:24;;;;;;;7.50;3.70;;;;;;;8.06;63.84;100699.84;109164;1253;59387;-70
2023/04/28 05:39:50;;;;;;;9.00;4.10;;;;;;;8.14;63.33;100696.38;109130;1253;74615;-70
2023/04/28 05:42:17;;;;;;;7.90;3.80;;;;;;;8.23;63.09;100698.20;109166;1253;72045;-71
2023/04/28 05:44:44;;;;;;;6.70;3.90;;;;;;;8.28;62.97;100698.29;109309;1253;73259;-71
2023/04/28 05:47:11;;;;;;;6.50;4.00;;;;;;;8.34;62.58;100696.06;108970;1253;60053;-70
2023/04/28 05:49:37;;;;;;;6.60;4.00;;;;;;;8.40;62.58;100693.50;109225;1253;59002;-70
2023/04/28 05:52:04;;;;;;;7.00;3.90;;;;;;;8.47;62.64;100696.66;109108;1253;74549;-71
2023/04/28 05:54:33;;;;;;;10.30;4.40;;;;;;;8.54;62.18;100692.05;109235;1253;70981;-70
2023/04/28 05:57:00;;;;;;;8.50;4.20;;;;;;;8.63;62.07;100687.13;109183;1252;71142;-71
2023/04/28 05:59:29;;;;;;;7.00;4.10;;;;;;;8.70;61.94;100682.33;109286;1253;60841;-71
2023/04/28 06:01:56;;;;;;;6.90;3.80;;;;;;;8.77;61.81;100678.57;109297;1253;59584;-70
2023/04/28 06:04:23;;;;;;;9.00;4.30;;;;;;;8.87;61.63;100680.89;109117;1253;73202;-70
2023/04/28 06:06:51;;;;;;;8.50;4.20;;;;;;;8.95;61.73;100680.27;109312;1253;71765;-70
2023/04/28 06:09:19;;;;;;;8.20;4.10;;;;;;;9.06;61.34;100681.86;109327;1253;71519;-71
2023/04/28 06:11:45;;;;;;;6.70;3.50;;;;;;;9.15;61.04;100675.91;109225;1253;60129;-71
2023/04/28 06:14:12;;;;;;;6.20;4.00;;;;;;;9.24;60.57;100673.19;109072;1254;60024;-71
2023/04/28 06:16:39;;;;;;;10.40;4.10;;;;;;;9.33;60.41;100669.30;109280;1253;74741;-71
2023/04/28 06:19:05;;;;;;;7.60;4.20;;;;;;;9.43;60.11;100668.63;109313;1253;71191;-71
2023/04/28 06:21:32;;;;;;;8.80;4.50;;;;;;;9.55;60.03;100667.39;109323;1253;71163;-71
2023/04/28 06:24:00;;;;;;;8.30;4.20;;;;;;;9.66;59.87;100668.88;109197;1253;59465;-71
2023/04/28 06:26:27;;;;;;;8.60;4.40;;;;;;;9.77;59.32;100665.40;109153;1256;59823;-71
2023/04/28 06:28:54;;;;;;;7.90;4.70;;;;;;;9.86;58.96;100670.45;109215;1256;73856;-71
2023/04/28 06:31:21;;;;;;;9.00;4.50;;;;;;;9.97;58.91;100667.10;109221;1252;71173;-71
2023/04/28 06:33:48;;;;;;;8.40;4.60;;;;;;;10.07;58.04;100666.09;109199;1253;72625;-71
2023/04/28 06:36:16;;;;;;;6.20;4.30;;;;;;;10.15;57.92;100667.19;109313;1252;59175;-71
2023/04/28 06:38:44;;;;;;;6.70;4.50;;;;;;;10.22;57.88;100665.13;109306;1253;59130;-71
2023/04/28 06:41:11;;;;;;;11.20;5.40;;;;;;;10.29;57.90;100664.42;109193;1254;74531;-72
2023/04/28 06:43:38;;;;;;;8.90;4.90;;;;;;;10.36;57.81;100661.84;109114;1254;70996;-71
2023/04/28 06:46:05;;;;;;;8.40;4.90;;;;;;;10.45;57.04;100660.84;109373;1253;72665;-71
2023/04/28 06:48:32;;;;;;;7.80;5.20;;;;;;;10.57;57.09;100664.44;109220;1253;61007;-71
2023/04/28 06:50:58;;;;;;;7.90;4.50;;;;;;;10.68;56.45;100668.47;109391;1252;59068;-70
2023/04/28 06:53:25;;;;;;;11.20;5.20;;;;;;;10.78;56.37;100668.70;109116;1254;76226;-71
2023/04/28 06:55:52;;;;;;;10.10;5.20;;;;;;;10.90;55.94;100667.36;109017;1254;72177;-71
2023/04/28 06:58:19;;;;;;;10.30;5.00;;;;;;;11.06;56.05;100663.55;109236;1253;72689;-72
2023/04/28 07:00:46;;;;;;;9.50;5.00;;;;;;;11.23;55.41;100664.52;109185;1254;59116;-72
2023/04/28 07:03:13;;;;;;;8.90;5.40;;;;;;;11.36;54.40;100666.94;109360;1253;60217;-71
2023/04/28 07:05:40;;;;;;;10.70;5.50;;;;;;;11.50;53.93;100663.25;109346;1253;72592;-70
2023/04/28 07:08:06;;;;;;;8.10;5.30;;;;;;;11.60;53.65;100658.18;109352;1253;71372;-70
2023/04/28 07:10:34;;;;;;;8.60;5.40;;;;;;;11.66;53.36;100656.16;109382;1253;71140;-71
2023/04/28 07:13:00;;;;;;;8.20;4.70;;;;;;;11.72;52.89;100652.48;109049;1252;61329;-72
2023/04/28 07:15:27;;;;;;;10.20;5.50;;;;;;;11.78;52.64;100650.58;109341;1253;60157;-71
2023/04/28 07:17:54;;;;;;;11.10;5.90;;;;;;;11.93;52.33;100646.65;109120;1254;75163;-72
2023/04/28 07:20:20;;;;;;;9.90;5.30;;;;;;;12.05;51.76;100645.68;109361;1253;70051;-71
2023/04/28 07:22:47;;;;;;;9.10;5.70;;;;;;;12.14;51.44;100642.77;109383;1254;59041;-71
2023/04/28 07:25:14;;;;;;;9.80;6.00;;;;;;;12.20;51.29;100635.96;109228;1253;59056;-72
2023/04/28 07:27:40;;;;;;;10.30;5.80;;;;;;;12.27;50.71;100633.63;109340;1253;59446;-68
2023/04/28 07:30:07;;;;;;;9.30;5.60;;;;;;;12.36;50.31;100638.59;109320;1253;73948;-71
2023/04/28 07:32:51;;;;;;;9.30;5.70;;;;;;;12.36;49.43;100634.04;109342;1252;69862;-70
2023/04/28 07:35:18;;;;;;;8.80;5.80;;;;;;;12.36;49.72;100636.79;109181;1253;74571;-70
2023/04/28 07:37:45;;;;;;;9.20;5.70;;;;;;;12.37;49.41;100636.23;109384;1253;60281;-71
2023/04/28 07:40:12;;;;;;;10.00;6.20;;;;;;;12.41;49.76;100642.08;109380;1253;59132;-70
2023/04/28 07:42:39;;;;;;;8.20;5.70;;;;;;;12.45;49.27;100639.95;109346;1252;73272;-70
2023/04/28 07:45:06;;;;;;;10.10;6.40;;;;;;;12.48;49.54;100639.45;109261;1253;68691;-70
2023/04/28 07:47:32;;;;;;;9.30;6.10;;;;;;;12.50;49.64;100635.92;109344;1253;73505;-71
2023/04/28 07:50:05;;;;;;;10.50;6.60;;;;;;;12.57;49.83;100634.70;109290;1253;61504;-71
2023/04/28 07:52:32;;;;;;;11.20;6.10;;;;;;;12.66;49.40;100632.66;109054;1253;59476;-71
2023/04/28 07:54:59;;;;;;;9.40;6.70;;;;;;;12.76;49.49;100633.14;109086;1254;74564;-71
2023/04/28 07:57:26;;;;;;;8.80;6.20;;;;;;;12.89;49.05;100630.23;109303;1253;70041;-71
2023/04/28 07:59:52;;;;;;;9.60;6.40;;;;;;;12.96;48.05;100623.77;109238;1253;72468;-71
2023/04/28 08:02:19;;;;;;;10.90;6.50;;;;;;;13.02;48.00;100622.90;109363;1253;59563;-71
2023/04/28 08:04:46;;;;;;;9.30;6.30;;;;;;;13.09;48.19;100621.04;109372;1254;60324;-71
2023/04/28 08:07:13;;;;;;;12.60;7.20;;;;;;;13.22;48.09;100616.91;109176;1252;74820;-71
2023/04/28 08:09:43;;;;;;;10.90;7.00;;;;;;;13.38;48.41;100613.98;109143;1252;71454;-71
2023/04/28 08:12:09;;;;;;;11.00;6.50;;;;;;;13.43;47.22;100612.90;109327;1253;71676;-71
2023/04/28 08:14:36;;;;;;;12.60;6.80;;;;;;;13.56;47.99;100616.55;109347;1252;59084;-71
2023/04/28 08:17:03;;;;;;;11.80;6.70;;;;;;;13.69;47.44;100612.14;109298;1253;60513;-72
2023/04/28 08:19:30;;;;;;;10.70;6.80;;;;;;;13.83;47.72;100612.02;109316;1254;74696;-71
2023/04/28 08:21:56;;;;;;;10.70;6.70;;;;;;;13.97;48.04;100609.39;109334;1253;69826;-71
2023/04/28 08:24:23;;;;;;;10.50;6.60;;;;;;;14.09;48.04;100605.22;109106;1254;71070;-71
2023/04/28 08:26:50;;;;;;;11.00;6.50;;;;;;;14.17;47.82;100606.27;109319;1253;60732;-72
2023/04/28 08:29:17;;;;;;;11.00;6.60;;;;;;;14.26;47.80;100605.27;109201;1258;59083;-71
2023/04/28 08:31:44;;;;;;;10.70;7.20;;;;;;;14.31;47.73;100604.80;109410;1254;75861;-71
2023/04/28 08:34:11;;;;;;;11.00;6.80;;;;;;;14.33;47.68;100604.71;109063;1259;71115;-72
2023/04/28 08:36:41;;;;;;;11.00;6.60;;;;;;;14.41;48.01;100606.73;109202;1253;71136;-71
2023/04/28 08:39:09;;;;;;;12.70;6.70;;;;;;;14.53;48.34;100605.16;109095;1252;60293;-71
2023/04/28 08:41:39;;;;;;;10.60;6.60;;;;;;;14.60;47.72;100602.24;109122;1252;59180;-72
2023/04/28 08:44:08;;;;;;;11.20;7.00;;;;;;;14.68;47.87;100603.52;109414;1253;74874;-71
2023/04/28 08:46:35;;;;;;;11.70;6.80;;;;;;;14.79;47.81;100602.83;109345;1254;68647;-72
2023/04/28 08:49:05;;;;;;;12.60;6.80;;;;;;;14.81;46.96;100597.13;109233;1253;71550;-71
2023/04/28 08:51:42;;;;;;;12.20;6.90;;;;;;;14.82;46.68;100596.84;109092;1252;59347;-72
2023/04/28 08:54:12;;;;;;;11.30;7.20;;;;;;;14.85;46.71;100589.15;109068;1254;59094;-71
2023/04/28 08:56:52;;;;;;;11.10;7.20;;;;;;;14.94;46.75;100593.30;109315;1254;73544;-72
2023/04/28 08:59:20;;;;;;;13.20;6.60;;;;;;;15.04;46.94;100585.98;109242;1254;69770;-71
2023/04/28 09:01:50;;;;;;;11.70;6.50;;;;;;;15.16;46.64;100591.55;109065;1253;71830;-71
2023/04/28 09:04:18;;;;;;;11.20;6.50;;;;;;;15.32;46.36;100586.71;109336;1254;59417;-71
2023/04/28 09:06:46;;;;;;;10.40;6.40;;;;;;;15.50;46.26;100585.36;109219;1253;59810;-70
2023/04/28 09:09:23;;;;;;;17.60;7.30;;;;;;;15.61;45.57;100580.64;109294;1253;73963;-72
2023/04/28 09:11:58;;;;;;;10.40;6.60;;;;;;;15.72;45.48;100580.58;109209;1254;70074;-71
2023/04/28 09:14:26;;;;;;;11.20;6.70;;;;;;;15.75;44.95;100576.14;109181;1253;73736;-72
2023/04/28 09:16:54;;;;;;;9.70;6.10;;;;;;;15.68;44.23;100574.13;109258;1254;59078;-71
2023/04/28 09:19:21;;;;;;;10.80;6.60;;;;;;;15.60;44.23;100569.38;109071;1252;59273;-71
2023/04/28 09:21:55;;;;;;;8.10;5.70;;;;;;;15.57;44.80;100567.36;109172;1254;73688;-71
2023/04/28 09:24:31;;;;;;;12.50;6.60;;;;;;;15.54;44.57;100564.91;109243;1253;69728;-70
2023/04/28 09:27:03;;;;;;;9.80;6.10;;;;;;;15.60;45.26;100558.14;109190;1253;72800;-70
2023/04/28 09:29:30;;;;;;;11.60;6.20;;;;;;;15.77;45.40;100553.66;109220;1252;59404;-71
2023/04/28 09:32:18;;;;;;;12.40;5.70;;;;;;;15.91;45.02;100554.21;109332;1253;59106;-71
2023/04/28 09:34:50;;;;;;;9.80;5.90;;;;;;;15.92;44.46;100554.37;109191;1253;73764;-71
2023/04/28 09:37:19;;;;;;;10.00;6.40;;;;;;;15.86;44.71;100554.36;109279;1254;71725;-71
2023/04/28 09:39:49;;;;;;;10.40;6.00;;;;;;;15.77;44.81;100550.37;109219;1253;71068;-71
2023/04/28 09:42:46;;;;;;;9.70;6.40;;;;;;;15.74;45.00;100541.45;109070;1254;61207;-71
2023/04/28 09:45:15;;;;;;;12.80;6.80;;;;;;;15.73;45.29;100542.52;109342;1253;58943;-71
2023/04/28 09:47:43;;;;;;;10.40;6.00;;;;;;;15.78;45.40;100537.74;109329;1254;73466;-72
2023/04/28 09:50:13;;;;;;;10.10;6.00;;;;;;;15.88;45.28;100533.83;109378;1253;71097;-72
2023/04/28 09:52:43;;;;;;;9.70;5.80;;;;;;;15.98;44.52;100532.48;109040;1253;73478;-71
2023/04/28 09:55:11;;;;;;;9.20;5.10;;;;;;;15.99;44.40;100534.21;109225;1257;59412;-72
2023/04/28 09:57:38;;;;;;;9.10;5.20;;;;;;;15.98;44.61;100534.17;109129;1253;60886;-72
2023/04/28 10:00:07;;;;;;;11.00;5.80;;;;;;;15.91;44.58;100533.30;109203;1254;73250;-72
2023/04/28 10:02:36;;;;;;;9.90;5.90;;;;;;;15.90;44.63;100534.09;109393;1254;69167;-72
2023/04/28 10:05:08;;;;;;;9.40;5.60;;;;;;;15.79;44.63;100532.21;109307;1253;71279;-72
2023/04/28 10:07:36;;;;;;;10.30;5.90;;;;;;;15.81;45.31;100532.65;109113;1253;60230;-72
2023/04/28 10:10:04;;;;;;;9.80;5.70;;;;;;;15.87;46.25;100531.77;109182;1254;59239;-71
2023/04/28 10:12:31;;;;;;;9.40;6.00;;;;;;;15.91;46.10;100531.83;109072;1253;74465;-71
2023/04/28 10:14:59;;;;;;;12.70;6.20;;;;;;;15.93;46.14;100537.99;109197;1254;71402;-71
2023/04/28 10:17:28;;;;;;;12.00;6.10;;;;;;;15.95;46.06;100538.55;109141;1252;70386;-71
2023/04/28 10:19:56;;;;;;;10.00;6.20;;;;;;;15.94;46.06;100539.20;109132;1253;59364;-71
2023/04/28 10:22:48;;;;;;;9.70;6.10;;;;;;;15.93;46.07;100539.87;109189;1253;59462;-71
2023/04/28 10:25:25;;;;;;;10.40;6.50;;;;;;;15.92;46.56;100537.37;109058;1252;73469;-71
2023/04/28 10:27:53;;;;;;;10.50;5.90;;;;;;;15.87;46.34;100534.98;109222;1253;69674;-71
2023/04/28 10:30:25;;;;;;;11.10;6.10;;;;;;;15.83;45.91;100527.39;109068;1254;71967;-72
2023/04/28 10:33:08;;;;;;;11.20;6.50;;;;;;;15.84;46.45;100527.55;109145;1253;60759;-71
2023/04/28 10:35:39;;;;;;;10.90;6.40;;;;;;;15.84;46.82;100525.73;109358;1253;59129;-71
2023/04/28 10:38:07;;;;;;;12.50;6.50;;;;;;;15.91;46.50;100523.76;109295;1252;74761;-71
2023/04/28 10:40:45;;;;;;;10.60;6.30;;;;;;;16.00;46.31;100518.98;109201;1254;69575;-71
2023/04/28 10:43:32;;;;;;;12.40;6.40;;;;;;;16.08;46.76;100512.20;109117;1253;71459;-71
2023/04/28 10:46:02;;;;;;;9.80;6.70;;;;;;;16.18;46.98;100514.24;109341;1253;59319;-71
2023/04/28 10:48:28;;;;;;;11.80;6.70;;;;;;;16.30;46.80;100511.77;109308;1253;59502;-71
2023/04/28 10:51:11;;;;;;;12.90;7.10;;;;;;;16.40;46.09;100511.87;109292;1254;74732;-71
2023/04/28 10:53:41;;;;;;;10.50;6.80;;;;;;;16.48;45.90;100514.48;109231;1253;71630;-71
2023/04/28 10:56:09;;;;;;;10.70;6.80;;;;;;;16.56;45.86;100509.42;109272;1252;70550;-72
2023/04/28 10:58:40;;;;;;;14.60;7.80;;;;;;;16.63;45.69;100512.34;109069;1254;61626;-71
2023/04/28 11:01:29;;;;;;;14.40;7.60;;;;;;;16.70;45.91;100510.54;109301;1253;58935;-72
2023/04/28 11:04:12;;;;;;;16.80;7.80;;;;;;;16.84;45.77;100506.52;109313;1252;73774;-72
2023/04/28 11:06:44;;;;;;;12.90;6.50;;;;;;;16.98;45.66;100502.32;109362;1253;69927;-71
2023/04/28 11:09:11;;;;;;;13.70;6.30;;;;;;;17.07;45.59;100500.44;109166;1253;71526;-72
2023/04/28 11:11:39;;;;;;;10.60;6.20;;;;;;;17.16;45.92;100503.45;109342;1254;59042;-71
2023/04/28 11:14:18;;;;;;;10.40;6.30;;;;;;;17.18;45.01;100501.66;109366;1254;60084;-71
2023/04/28 11:17:01;;;;;;;10.10;5.70;;;;;;;17.17;45.23;100498.98;109308;1253;74501;-72
2023/04/28 11:19:33;;;;;;;10.60;6.10;;;;;;;17.15;45.72;100498.39;109277;1254;71763;-71
2023/04/28 11:22:02;;;;;;;9.80;6.20;;;;;;;17.12;46.39;100498.86;109116;1254;71427;-72
2023/04/28 11:24:30;;;;;;;9.10;6.20;;;;;;;17.05;46.53;100496.71;109009;1252;59005;-71